createdAt,value
2023-04-29T00:00:25.049Z,100.00
2023-04-29T00:02:52.048Z,100.00
2023-04-29T00:05:18.852Z,100.00
2023-04-29T00:07:45.469Z,100.00
2023-04-29T00:10:14.679Z,100.00
2023-04-29T00:12:41.735Z,100.00
2023-04-29T00:15:08.879Z,100.00
2023-04-29T00:17:36.688Z,100.00
2023-04-29T00:20:04.114Z,100.00
2023-04-29T00:22:30.646Z,100.00
2023-04-29T00:24:57.125Z,100.00
2023-04-29T00:27:23.529Z,100.00
2023-04-29T00:29:50.197Z,100.00
2023-04-29T00:32:17.016Z,100.00
2023-04-29T00:34:46.205Z,100.00
2023-04-29T00:37:12.679Z,100.00
2023-04-29T00:39:39.315Z,100.00
2023-04-29T00:42:06.075Z,100.00
2023-04-29T00:44:32.554Z,100.00
2023-04-29T00:46:59.278Z,100.00
2023-04-29T00:49:27.728Z,100.00
2023-04-29T00:51:57.797Z,100.00
2023-04-29T00:54:24.370Z,100.00
2023-04-29T00:56:51.928Z,100.00
2023-04-29T00:59:18.711Z,100.00
2023-04-29T01:01:45.458Z,100.00
2023-04-29T01:04:13.606Z,100.00
2023-04-29T01:06:54.574Z,100.00
2023-04-29T01:09:47.264Z,100.00
2023-04-29T01:12:25.238Z,100.00
2023-04-29T01:15:23.960Z,100.00
2023-04-29T01:18:05.563Z,100.00
2023-04-29T01:20:33.474Z,100.00
2023-04-29T01:22:59.863Z,100.00
2023-04-29T01:25:27.178Z,100.00
2023-04-29T01:28:13.641Z,100.00
2023-04-29T01:30:49.906Z,100.00
2023-04-29T01:33:27.735Z,100.00
2023-04-29T01:36:13.416Z,100.00
2023-04-29T01:38:47.303Z,100.00
2023-04-29T01:41:23.607Z,100.00
2023-04-29T01:43:56.780Z,100.00
2023-04-29T01:46:24.107Z,100.00
2023-04-29T01:48:54.982Z,100.00
2023-04-29T01:51:21.837Z,100.00
2023-04-29T01:53:48.634Z,100.00
2023-04-29T01:56:15.137Z,100.00
2023-04-29T01:59:08.275Z,100.00
2023-04-29T02:01:53.233Z,100.00
2023-04-29T02:04:20.408Z,100.00
2023-04-29T02:06:46.860Z,100.00
2023-04-29T02:09:13.297Z,100.00
2023-04-29T02:11:46.752Z,100.00
2023-04-29T02:14:13.869Z,100.00
2023-04-29T02:16:40.435Z,100.00
2023-04-29T02:19:07.308Z,100.00
2023-04-29T02:21:35.241Z,100.00
2023-04-29T02:24:02.523Z,100.00
2023-04-29T02:26:28.938Z,100.00
2023-04-29T02:28:57.221Z,100.00
2023-04-29T02:31:23.819Z,100.00
2023-04-29T02:33:50.888Z,100.00
2023-04-29T02:36:18.236Z,100.00
2023-04-29T02:38:44.710Z,100.00
2023-04-29T02:41:16.643Z,100.00
2023-04-29T02:43:43.951Z,100.00
2023-04-29T02:46:10.818Z,100.00
2023-04-29T02:48:37.783Z,100.00
2023-04-29T02:51:04.644Z,100.00
2023-04-29T02:53:31.152Z,100.00
2023-04-29T02:55:57.733Z,100.00
2023-04-29T02:58:24.558Z,100.00
2023-04-29T03:00:51.219Z,100.00
2023-04-29T03:03:17.942Z,100.00
2023-04-29T03:05:44.559Z,100.00
2023-04-29T03:08:11.193Z,100.00
2023-04-29T03:10:39.262Z,100.00
2023-04-29T03:13:07.773Z,100.00
2023-04-29T03:15:35.393Z,100.00
2023-04-29T03:18:04.673Z,100.00
2023-04-29T03:20:33.633Z,100.00
2023-04-29T03:23:02.536Z,100.00
2023-04-29T03:25:29.143Z,100.00
2023-04-29T03:27:56.046Z,100.00
2023-04-29T03:30:22.717Z,100.00
2023-04-29T03:32:52.239Z,100.00
2023-04-29T03:35:18.972Z,100.00
2023-04-29T03:38:14.015Z,100.00
2023-04-29T03:40:40.733Z,100.00
2023-04-29T03:43:09.278Z,100.00
2023-04-29T03:45:35.994Z,100.00
2023-04-29T03:48:03.691Z,100.00
2023-04-29T03:50:30.815Z,100.00
2023-04-29T03:52:57.821Z,100.00
2023-04-29T03:55:24.262Z,100.00
2023-04-29T03:57:51.156Z,100.00
2023-04-29T04:00:18.807Z,100.00
2023-04-29T04:02:49.794Z,100.00
2023-04-29T04:05:19.385Z,100.00
2023-04-29T04:07:50.008Z,100.00
2023-04-29T04:10:42.466Z,100.00
2023-04-29T04:13:20.357Z,100.00
2023-04-29T04:15:52.136Z,100.00
2023-04-29T04:18:18.971Z,100.00
2023-04-29T04:20:45.491Z,100.00
2023-04-29T04:23:12.188Z,100.00
2023-04-29T04:25:39.198Z,100.00
2023-04-29T04:28:23.880Z,100.00
2023-04-29T04:30:58.678Z,100.00
2023-04-29T04:33:26.209Z,100.00
2023-04-29T04:35:53.143Z,100.00
2023-04-29T04:38:19.572Z,100.00
2023-04-29T04:40:46.917Z,100.00
2023-04-29T04:43:34.932Z,100.00
2023-04-29T04:46:14.229Z,100.00
2023-04-29T04:48:51.104Z,100.00
2023-04-29T04:51:19.269Z,100.00
2023-04-29T04:53:45.764Z,100.00
2023-04-29T04:56:18.977Z,100.00
2023-04-29T04:58:46.523Z,100.00
2023-04-29T05:01:14.155Z,100.00
2023-04-29T05:03:40.929Z,100.00
2023-04-29T05:06:07.747Z,100.00
2023-04-29T05:08:34.677Z,100.00
2023-04-29T05:11:03.703Z,100.00
2023-04-29T05:13:30.256Z,100.00
2023-04-29T05:15:56.764Z,100.00
2023-04-29T05:18:26.741Z,100.00
2023-04-29T05:20:53.247Z,100.00
2023-04-29T05:23:20.018Z,100.00
2023-04-29T05:25:47.042Z,100.00
2023-04-29T05:28:13.846Z,100.00
2023-04-29T05:30:41.703Z,100.00
2023-04-29T05:33:08.489Z,100.00
2023-04-29T05:35:34.883Z,100.00
2023-04-29T05:38:02.601Z,100.00
2023-04-29T05:40:38.082Z,100.00
2023-04-29T05:43:39.682Z,100.00
2023-04-29T05:46:06.449Z,100.00
2023-04-29T05:48:32.890Z,100.00
2023-04-29T05:50:59.437Z,100.00
2023-04-29T05:53:26.270Z,100.00
2023-04-29T05:55:53.246Z,100.00
2023-04-29T05:58:21.300Z,100.00
2023-04-29T06:00:49.336Z,100.00
2023-04-29T06:03:20.855Z,100.00
2023-04-29T06:05:52.285Z,100.00
2023-04-29T06:08:34.095Z,100.00
2023-04-29T06:11:23.252Z,100.00
2023-04-29T06:13:49.999Z,100.00
2023-04-29T06:16:17.840Z,100.00
2023-04-29T06:18:44.300Z,100.00
2023-04-29T06:21:10.710Z,100.00
2023-04-29T06:23:37.134Z,100.00
2023-04-29T06:26:09.515Z,100.00
2023-04-29T06:28:35.984Z,100.00
2023-04-29T06:31:02.834Z,100.00
2023-04-29T06:33:30.373Z,100.00
2023-04-29T06:35:57.244Z,100.00
2023-04-29T06:38:53.513Z,100.00
2023-04-29T06:41:38.780Z,100.00
2023-04-29T06:44:16.793Z,100.00
2023-04-29T06:46:52.719Z,100.00
2023-04-29T06:49:26.869Z,100.00
2023-04-29T06:51:53.952Z,100.00
2023-04-29T06:54:20.423Z,100.00
2023-04-29T06:56:50.092Z,100.00
2023-04-29T06:59:17.492Z,100.00
2023-04-29T07:01:44.978Z,100.00
2023-04-29T07:04:12.773Z,100.00
2023-04-29T07:06:39.361Z,100.00
2023-04-29T07:09:06.619Z,99.41
2023-04-29T07:11:33.519Z,98.95
2023-04-29T07:14:00.043Z,97.99
2023-04-29T07:16:30.084Z,97.49
2023-04-29T07:18:56.553Z,96.22
2023-04-29T07:21:22.968Z,95.27
2023-04-29T07:23:49.462Z,95.31
2023-04-29T07:26:17.415Z,95.78
2023-04-29T07:28:45.716Z,95.86
2023-04-29T07:31:15.161Z,96.46
2023-04-29T07:33:41.632Z,96.04
2023-04-29T07:36:10.932Z,95.73
2023-04-29T07:38:37.378Z,95.50
2023-04-29T07:41:06.852Z,96.05
2023-04-29T07:43:33.894Z,95.28
2023-04-29T07:46:00.372Z,94.25
2023-04-29T07:48:28.011Z,94.75
2023-04-29T07:50:54.705Z,93.57
2023-04-29T07:53:21.682Z,93.88
2023-04-29T07:55:50.898Z,92.38
2023-04-29T07:58:18.826Z,90.42
2023-04-29T08:00:45.506Z,88.68
2023-04-29T08:03:12.291Z,88.57
2023-04-29T08:05:39.231Z,87.07
2023-04-29T08:08:06.725Z,87.23
2023-04-29T08:10:33.161Z,84.62
2023-04-29T08:13:00.433Z,83.47
2023-04-29T08:15:28.266Z,84.09
2023-04-29T08:17:54.789Z,82.80
2023-04-29T08:20:21.467Z,82.64
2023-04-29T08:22:47.998Z,82.39
2023-04-29T08:25:14.393Z,81.35
2023-04-29T08:27:40.925Z,82.23
2023-04-29T08:30:08.264Z,80.61
2023-04-29T08:32:35.346Z,78.92
2023-04-29T08:35:03.091Z,79.87
2023-04-29T08:37:29.495Z,79.29
2023-04-29T08:39:55.977Z,78.70
2023-04-29T08:42:33.786Z,78.90
2023-04-29T08:45:01.908Z,79.44
2023-04-29T08:47:34.135Z,77.39
2023-04-29T08:50:05.380Z,75.25
2023-04-29T08:52:32.846Z,76.67
2023-04-29T08:55:02.710Z,75.64
2023-04-29T08:57:31.705Z,75.03
2023-04-29T09:00:01.107Z,75.65
2023-04-29T09:02:28.091Z,74.53
2023-04-29T09:05:04.820Z,75.39
2023-04-29T09:07:32.068Z,76.88
2023-04-29T09:09:59.545Z,76.76
2023-04-29T09:12:26.176Z,77.30
2023-04-29T09:14:52.715Z,77.75
2023-04-29T09:17:21.291Z,78.09
2023-04-29T09:19:47.709Z,78.11
2023-04-29T09:22:14.088Z,77.70
2023-04-29T09:24:40.820Z,77.68
2023-04-29T09:27:08.038Z,78.27
2023-04-29T09:29:36.539Z,78.68
2023-04-29T09:32:19.450Z,77.87
2023-04-29T09:34:46.050Z,77.40
2023-04-29T09:37:27.829Z,76.22
2023-04-29T09:39:54.760Z,76.09
2023-04-29T09:42:21.129Z,74.12
2023-04-29T09:44:47.722Z,73.89
2023-04-29T09:47:14.794Z,73.48
2023-04-29T09:49:43.021Z,73.71
2023-04-29T09:52:16.822Z,73.47
2023-04-29T09:54:44.312Z,73.41
2023-04-29T09:57:12.457Z,73.41
2023-04-29T09:59:40.345Z,73.44
2023-04-29T10:02:09.391Z,72.56
2023-04-29T10:04:40.324Z,72.64
2023-04-29T10:07:08.440Z,70.74
2023-04-29T10:09:38.143Z,69.68
2023-04-29T10:12:07.626Z,67.88
2023-04-29T10:14:48.956Z,68.04
2023-04-29T10:17:24.118Z,67.71
2023-04-29T10:20:05.643Z,64.67
2023-04-29T10:22:49.223Z,63.19
2023-04-29T10:25:17.308Z,62.89
2023-04-29T10:27:45.040Z,63.85
2023-04-29T10:30:13.830Z,62.58
2023-04-29T10:32:50.489Z,63.00
2023-04-29T10:35:20.431Z,62.55
2023-04-29T10:37:48.886Z,61.73
2023-04-29T10:40:46.591Z,61.92
2023-04-29T10:43:13.685Z,61.32
2023-04-29T10:45:40.642Z,61.04
2023-04-29T10:48:14.559Z,59.63
2023-04-29T10:50:47.095Z,59.04
2023-04-29T10:53:14.869Z,58.24
2023-04-29T10:55:41.865Z,59.28
2023-04-29T10:58:39.242Z,58.91
2023-04-29T11:01:07.863Z,59.56
2023-04-29T11:03:48.713Z,60.77
2023-04-29T11:06:15.859Z,61.71
2023-04-29T11:08:43.337Z,62.08
2023-04-29T11:11:10.006Z,62.24
2023-04-29T11:13:40.533Z,61.75
2023-04-29T11:16:08.754Z,59.19
2023-04-29T11:19:04.117Z,59.10
2023-04-29T11:21:32.525Z,58.64
2023-04-29T11:24:01.063Z,59.41
2023-04-29T11:26:28.091Z,58.07
2023-04-29T11:28:56.387Z,57.04
2023-04-29T11:31:28.992Z,55.99
2023-04-29T11:33:55.552Z,56.55
2023-04-29T11:36:22.194Z,57.29
2023-04-29T11:38:48.680Z,56.07
2023-04-29T11:41:15.749Z,55.91
2023-04-29T11:43:43.578Z,55.79
2023-04-29T11:46:14.574Z,55.76
2023-04-29T11:48:47.695Z,56.92
2023-04-29T11:51:15.845Z,58.85
2023-04-29T11:53:42.381Z,59.84
2023-04-29T11:56:10.556Z,60.37
2023-04-29T11:58:37.474Z,59.95
2023-04-29T12:01:04.565Z,60.48
2023-04-29T12:03:32.912Z,60.25
2023-04-29T12:06:01.901Z,60.62
2023-04-29T12:08:30.249Z,58.96
2023-04-29T12:10:58.287Z,58.88
2023-04-29T12:13:28.117Z,58.66
2023-04-29T12:15:56.119Z,57.05
2023-04-29T12:18:23.360Z,56.02
2023-04-29T12:20:54.663Z,55.00
2023-04-29T12:23:23.240Z,55.06
2023-04-29T12:25:57.724Z,54.21
2023-04-29T12:28:24.779Z,52.50
2023-04-29T12:30:53.844Z,52.06
2023-04-29T12:33:27.339Z,51.23
2023-04-29T12:35:58.924Z,51.79
2023-04-29T12:38:27.699Z,52.23
2023-04-29T12:40:56.475Z,52.47
2023-04-29T12:43:30.362Z,53.83
2023-04-29T12:46:12.944Z,52.44
2023-04-29T12:48:41.547Z,53.79
2023-04-29T12:51:10.091Z,53.69
2023-04-29T12:53:37.141Z,54.37
2023-04-29T12:56:04.140Z,53.83
2023-04-29T12:58:31.487Z,52.24
2023-04-29T13:00:59.240Z,53.87
2023-04-29T13:03:26.801Z,55.77
2023-04-29T13:05:54.680Z,56.85
2023-04-29T13:08:21.208Z,57.27
2023-04-29T13:10:47.668Z,57.64
2023-04-29T13:13:14.078Z,58.11
2023-04-29T13:15:40.504Z,56.81
2023-04-29T13:18:07.250Z,57.41
2023-04-29T13:20:40.482Z,58.06
2023-04-29T13:23:08.628Z,58.56
2023-04-29T13:25:35.354Z,58.42
2023-04-29T13:28:05.306Z,58.89
2023-04-29T13:30:32.105Z,59.78
2023-04-29T13:33:04.366Z,59.06
2023-04-29T13:35:38.273Z,59.05
2023-04-29T13:38:05.326Z,59.04
2023-04-29T13:40:31.744Z,58.62
2023-04-29T13:43:06.062Z,58.42
2023-04-29T13:45:41.583Z,58.86
2023-04-29T13:48:25.922Z,59.31
2023-04-29T13:51:37.296Z,60.00
2023-04-29T13:59:30.689Z,57.61
2023-04-29T14:03:58.670Z,56.44
2023-04-29T14:06:25.279Z,56.27
2023-04-29T14:08:51.768Z,55.81
2023-04-29T14:11:19.498Z,55.91
2023-04-29T14:13:45.892Z,54.12
2023-04-29T14:16:12.371Z,53.81
2023-04-29T14:18:38.794Z,53.09
2023-04-29T14:21:05.423Z,53.17
2023-04-29T14:23:31.953Z,53.83
2023-04-29T14:26:16.617Z,54.33
2023-04-29T14:28:44.802Z,53.67
2023-04-29T14:31:13.692Z,53.52
2023-04-29T14:33:40.559Z,54.34
2023-04-29T14:36:07.576Z,54.17
2023-04-29T14:38:34.276Z,54.49
2023-04-29T14:41:00.686Z,55.80
2023-04-29T14:43:28.813Z,55.18
2023-04-29T14:45:55.703Z,55.65
2023-04-29T14:48:22.252Z,54.82
2023-04-29T14:50:49.149Z,55.12
2023-04-29T14:53:16.012Z,53.67
2023-04-29T14:55:42.822Z,54.35
2023-04-29T14:58:10.233Z,53.95
2023-04-29T15:00:36.834Z,53.50
2023-04-29T15:03:05.134Z,52.09
2023-04-29T15:05:31.893Z,50.98
2023-04-29T15:08:00.031Z,50.05
2023-04-29T15:10:27.239Z,49.05
2023-04-29T15:12:54.401Z,48.71
2023-04-29T15:15:21.946Z,50.38
2023-04-29T15:17:48.631Z,49.42
2023-04-29T15:20:16.283Z,47.28
2023-04-29T15:22:42.731Z,45.83
2023-04-29T15:25:09.887Z,46.53
2023-04-29T15:27:37.697Z,46.20
2023-04-29T15:30:07.751Z,45.39
2023-04-29T15:32:34.440Z,45.00
2023-04-29T15:35:06.601Z,45.35
2023-04-29T15:37:33.304Z,46.39
2023-04-29T15:40:00.753Z,45.80
2023-04-29T15:42:28.393Z,46.04
2023-04-29T15:44:54.837Z,46.16
2023-04-29T15:47:21.792Z,46.56
2023-04-29T15:49:50.276Z,45.98
2023-04-29T15:52:16.673Z,46.14
2023-04-29T15:54:43.038Z,46.62
2023-04-29T15:57:09.742Z,45.92
2023-04-29T15:59:36.204Z,46.00
2023-04-29T16:02:03.698Z,45.86
2023-04-29T16:04:31.682Z,45.59
2023-04-29T16:06:58.322Z,46.13
2023-04-29T16:09:24.732Z,45.84
2023-04-29T16:11:53.599Z,46.23
2023-04-29T16:14:19.989Z,45.52
2023-04-29T16:16:46.586Z,45.51
2023-04-29T16:19:13.488Z,45.25
2023-04-29T16:21:39.929Z,45.90
2023-04-29T16:24:07.753Z,45.10
2023-04-29T16:26:35.597Z,44.88
2023-04-29T16:29:02.141Z,45.07
2023-04-29T16:31:29.282Z,44.89
2023-04-29T16:33:57.440Z,45.51
2023-04-29T16:36:24.541Z,46.59
2023-04-29T16:38:51.486Z,46.48
2023-04-29T16:41:17.900Z,45.40
2023-04-29T16:43:44.399Z,46.34
2023-04-29T16:46:10.868Z,47.33
2023-04-29T16:48:37.509Z,47.27
2023-04-29T16:51:04.495Z,47.59
2023-04-29T16:53:31.324Z,48.17
2023-04-29T16:55:57.710Z,47.96
2023-04-29T16:58:24.164Z,49.49
2023-04-29T17:00:50.842Z,48.73
2023-04-29T17:03:17.642Z,49.12
2023-04-29T17:05:44.134Z,49.20
2023-04-29T17:08:10.770Z,49.15
2023-04-29T17:10:37.296Z,48.90
2023-04-29T17:13:03.703Z,49.20
2023-04-29T17:15:30.177Z,48.75
2023-04-29T17:17:56.685Z,49.23
2023-04-29T17:20:23.091Z,50.03
2023-04-29T17:22:49.793Z,50.72
2023-04-29T17:25:16.219Z,50.84
2023-04-29T17:27:46.026Z,51.31
2023-04-29T17:30:12.891Z,51.64
2023-04-29T17:32:39.673Z,52.03
2023-04-29T17:35:08.017Z,52.48
2023-04-29T17:37:35.257Z,52.37
2023-04-29T17:40:02.653Z,52.25
2023-04-29T17:42:29.238Z,52.11
2023-04-29T17:44:55.712Z,53.02
2023-04-29T17:47:23.256Z,52.86
2023-04-29T17:49:51.912Z,52.06
2023-04-29T17:52:21.278Z,52.35
2023-04-29T17:54:50.750Z,53.29
2023-04-29T17:57:17.246Z,53.20
2023-04-29T17:59:43.622Z,54.13
2023-04-29T18:02:10.082Z,54.07
2023-04-29T18:04:37.341Z,54.49
2023-04-29T18:07:04.022Z,54.90
2023-04-29T18:09:30.510Z,55.59
2023-04-29T18:11:56.894Z,56.15
2023-04-29T18:14:23.283Z,56.46
2023-04-29T18:16:49.780Z,57.57
2023-04-29T18:19:16.386Z,58.83
2023-04-29T18:21:42.837Z,59.21
2023-04-29T18:24:09.252Z,59.43
2023-04-29T18:26:35.805Z,60.22
2023-04-29T18:29:02.335Z,60.59
2023-04-29T18:31:28.909Z,61.52
2023-04-29T18:33:55.391Z,61.86
2023-04-29T18:36:23.566Z,62.85
2023-04-29T18:38:50.518Z,63.70
2023-04-29T18:41:16.989Z,63.95
2023-04-29T18:43:43.533Z,65.03
2023-04-29T18:46:10.157Z,65.88
2023-04-29T18:48:38.195Z,68.02
2023-04-29T18:51:05.991Z,67.90
2023-04-29T18:53:32.740Z,69.28
2023-04-29T18:55:59.194Z,69.46
2023-04-29T18:58:28.552Z,70.05
2023-04-29T19:00:57.540Z,70.26
2023-04-29T19:03:24.087Z,71.45
2023-04-29T19:05:50.712Z,71.92
2023-04-29T19:08:17.140Z,72.05
2023-04-29T19:10:44.405Z,72.45
2023-04-29T19:13:11.394Z,73.12
2023-04-29T19:15:38.453Z,73.14
2023-04-29T19:18:05.027Z,73.76
2023-04-29T19:20:31.992Z,73.47
2023-04-29T19:22:58.818Z,74.89
2023-04-29T19:25:28.209Z,75.50
2023-04-29T19:27:54.889Z,75.54
2023-04-29T19:30:21.331Z,74.83
2023-04-29T19:32:48.417Z,75.27
2023-04-29T19:35:14.939Z,75.29
2023-04-29T19:37:41.337Z,75.32
2023-04-29T19:40:10.446Z,75.91
2023-04-29T19:42:37.862Z,75.84
2023-04-29T19:45:07.502Z,75.78
2023-04-29T19:47:34.742Z,75.67
2023-04-29T19:50:01.355Z,76.16
2023-04-29T19:52:27.792Z,76.23
2023-04-29T19:54:54.225Z,77.20
2023-04-29T19:57:20.665Z,77.33
2023-04-29T19:59:47.082Z,77.10
2023-04-29T20:02:13.677Z,77.89
2023-04-29T20:04:40.363Z,77.67
2023-04-29T20:07:06.786Z,77.76
2023-04-29T20:09:33.592Z,77.70
2023-04-29T20:12:02.644Z,79.19
2023-04-29T20:14:29.574Z,78.83
2023-04-29T20:16:57.586Z,79.04
2023-04-29T20:19:26.229Z,79.05
2023-04-29T20:21:52.806Z,79.07
2023-04-29T20:24:19.223Z,79.22
2023-04-29T20:26:46.371Z,79.47
2023-04-29T20:29:12.801Z,79.59
2023-04-29T20:31:39.232Z,79.77
2023-04-29T20:34:05.905Z,80.27
2023-04-29T20:36:32.413Z,80.22
2023-04-29T20:38:58.820Z,80.40
2023-04-29T20:41:27.928Z,80.69
2023-04-29T20:43:55.041Z,80.93
2023-04-29T20:46:24.035Z,80.35
2023-04-29T20:48:51.815Z,80.07
2023-04-29T20:51:18.248Z,80.69
2023-04-29T20:53:44.677Z,80.05
2023-04-29T20:56:11.154Z,80.15
2023-04-29T20:58:37.639Z,80.32
2023-04-29T21:01:04.465Z,80.43
2023-04-29T21:03:31.018Z,79.65
2023-04-29T21:05:57.475Z,79.78
2023-04-29T21:08:25.085Z,80.45
2023-04-29T21:10:51.686Z,80.17
2023-04-29T21:13:18.190Z,80.60
2023-04-29T21:15:47.884Z,81.05
2023-04-29T21:18:14.647Z,80.65
2023-04-29T21:20:41.114Z,80.91
2023-04-29T21:23:07.620Z,80.29
2023-04-29T21:25:34.202Z,81.16
2023-04-29T21:28:01.895Z,81.39
2023-04-29T21:30:28.670Z,81.95
2023-04-29T21:32:55.169Z,81.81
2023-04-29T21:35:21.699Z,81.76
2023-04-29T21:37:48.207Z,81.75
2023-04-29T21:40:14.755Z,82.15
2023-04-29T21:42:43.601Z,82.13
2023-04-29T21:45:12.752Z,82.02
2023-04-29T21:47:39.824Z,82.08
2023-04-29T21:50:07.825Z,82.97
2023-04-29T21:52:35.114Z,83.81
2023-04-29T21:55:03.540Z,84.78
2023-04-29T21:57:43.009Z,84.24
2023-04-29T22:00:33.079Z,83.99
2023-04-29T22:03:01.507Z,83.88
2023-04-29T22:05:28.192Z,83.23
2023-04-29T22:07:57.151Z,83.87
2023-04-29T22:10:23.567Z,83.95
2023-04-29T22:12:50.550Z,83.97
2023-04-29T22:15:28.318Z,84.82
2023-04-29T22:17:56.803Z,84.44
2023-04-29T22:20:23.548Z,84.22
2023-04-29T22:22:49.932Z,84.11
2023-04-29T22:25:16.477Z,84.22
2023-04-29T22:27:42.881Z,83.74
2023-04-29T22:30:09.661Z,84.52
2023-04-29T22:32:36.264Z,84.41
2023-04-29T22:35:03.043Z,84.00
2023-04-29T22:37:29.550Z,83.41
2023-04-29T22:39:56.818Z,83.36
2023-04-29T22:42:23.612Z,83.41
2023-04-29T22:44:50.459Z,83.69
2023-04-29T22:47:17.067Z,84.33
2023-04-29T22:49:43.520Z,83.61
2023-04-29T22:52:10.097Z,83.80
2023-04-29T22:54:36.648Z,83.81
2023-04-29T22:57:04.014Z,83.85
2023-04-29T22:59:30.687Z,84.61
2023-04-29T23:01:57.364Z,83.92
2023-04-29T23:04:24.582Z,83.97
2023-04-29T23:06:51.710Z,84.69
2023-04-29T23:09:18.177Z,83.95
2023-04-29T23:11:44.855Z,84.54
2023-04-29T23:14:11.228Z,84.64
2023-04-29T23:16:37.762Z,84.34
2023-04-29T23:19:04.960Z,84.67
2023-04-29T23:21:32.544Z,84.63
2023-04-29T23:23:58.985Z,85.18
2023-04-29T23:26:25.458Z,84.34
2023-04-29T23:28:51.902Z,84.89
2023-04-29T23:31:18.343Z,84.55
2023-04-29T23:33:44.840Z,84.79
2023-04-29T23:36:11.774Z,85.41
2023-04-29T23:38:38.196Z,85.22
2023-04-29T23:41:05.025Z,85.30
2023-04-29T23:43:32.044Z,85.27
2023-04-29T23:45:58.819Z,84.98
2023-04-29T23:48:25.305Z,85.34
2023-04-29T23:50:51.790Z,85.50
2023-04-29T23:53:18.547Z,85.15
2023-04-29T23:55:44.950Z,85.38
2023-04-29T23:58:11.372Z,85.98
